createdAt,value
2018-10-06T00:00:10.178Z,99.90
2018-10-06T00:02:39.486Z,99.90
2018-10-06T00:05:09.388Z,99.90
2018-10-06T00:07:38.738Z,99.90
2018-10-06T00:10:08.794Z,99.90
2018-10-06T00:12:38.309Z,99.90
2018-10-06T00:15:08.040Z,99.90
2018-10-06T00:17:37.186Z,99.90
2018-10-06T00:20:07.623Z,99.90
2018-10-06T00:22:37.178Z,99.90
2018-10-06T00:25:07.319Z,99.90
2018-10-06T00:27:36.997Z,99.90
2018-10-06T00:30:06.484Z,99.90
2018-10-06T00:32:36.346Z,99.90
2018-10-06T00:35:06.590Z,99.90
2018-10-06T00:37:35.934Z,99.90
2018-10-06T00:40:05.652Z,99.90
2018-10-06T00:42:35.334Z,99.90
2018-10-06T00:45:05.486Z,99.90
2018-10-06T00:47:35.382Z,99.90
2018-10-06T00:50:05.409Z,99.90
2018-10-06T00:52:35.971Z,99.90
2018-10-06T00:55:05.700Z,99.90
2018-10-06T00:57:35.896Z,99.90
2018-10-06T01:00:06.116Z,99.90
2018-10-06T01:02:36.396Z,99.90
2018-10-06T01:05:05.454Z,99.90
2018-10-06T01:07:36.475Z,99.90
2018-10-06T01:10:06.250Z,99.90
2018-10-06T01:12:35.649Z,99.90
2018-10-06T01:15:04.929Z,99.90
2018-10-06T01:17:35.663Z,99.90
2018-10-06T01:20:05.537Z,99.90
2018-10-06T01:22:36.611Z,99.90
2018-10-06T01:25:06.994Z,99.90
2018-10-06T01:27:36.856Z,99.90
2018-10-06T01:30:06.521Z,99.90
2018-10-06T01:32:36.590Z,99.90
2018-10-06T01:35:06.427Z,99.90
2018-10-06T01:37:35.769Z,99.90
2018-10-06T01:40:06.408Z,99.90
2018-10-06T01:42:35.972Z,99.90
2018-10-06T01:45:05.517Z,99.90
2018-10-06T01:47:34.905Z,99.90
2018-10-06T01:50:04.403Z,99.90
2018-10-06T01:52:34.208Z,99.90
2018-10-06T01:55:03.453Z,99.90
2018-10-06T01:57:33.434Z,99.90
2018-10-06T02:00:03.406Z,99.90
2018-10-06T02:02:33.100Z,99.90
2018-10-06T02:05:02.454Z,99.90
2018-10-06T02:07:31.592Z,99.90
2018-10-06T02:10:00.240Z,99.90
2018-10-06T02:12:28.907Z,99.90
2018-10-06T02:14:57.743Z,99.90
2018-10-06T02:17:26.565Z,99.90
2018-10-06T02:19:55.635Z,99.90
2018-10-06T02:22:25.010Z,99.90
2018-10-06T02:24:53.998Z,99.90
2018-10-06T02:27:22.725Z,99.90
2018-10-06T02:29:51.398Z,99.90
2018-10-06T02:32:20.003Z,99.90
2018-10-06T02:34:48.657Z,99.90
2018-10-06T02:37:17.246Z,99.90
2018-10-06T02:39:45.848Z,99.90
2018-10-06T02:42:14.441Z,99.90
2018-10-06T02:44:43.049Z,99.90
2018-10-06T02:47:11.767Z,99.90
2018-10-06T02:49:41.009Z,99.90
2018-10-06T02:52:10.430Z,99.90
2018-10-06T02:54:39.931Z,99.90
2018-10-06T02:57:09.545Z,99.90
2018-10-06T02:59:39.009Z,99.90
2018-10-06T03:02:08.588Z,99.90
2018-10-06T03:04:37.891Z,99.90
2018-10-06T03:07:07.358Z,99.90
2018-10-06T03:09:38.361Z,99.90
2018-10-06T03:12:08.770Z,99.90
2018-10-06T03:14:38.633Z,99.90
2018-10-06T03:17:07.888Z,99.90
2018-10-06T03:19:37.584Z,99.90
2018-10-06T03:22:07.764Z,99.90
2018-10-06T03:24:37.333Z,99.90
2018-10-06T03:27:07.169Z,99.90
2018-10-06T03:29:37.189Z,99.90
2018-10-06T03:32:07.743Z,99.90
2018-10-06T03:34:37.047Z,99.90
2018-10-06T03:37:07.258Z,99.90
2018-10-06T03:39:36.757Z,99.90
2018-10-06T03:42:06.634Z,99.90
2018-10-06T03:44:36.293Z,99.90
2018-10-06T03:47:05.801Z,99.90
2018-10-06T03:49:34.876Z,99.90
2018-10-06T03:52:04.396Z,99.90
2018-10-06T03:54:34.070Z,99.90
2018-10-06T03:57:05.101Z,99.90
2018-10-06T03:59:34.965Z,99.90
2018-10-06T04:02:04.598Z,99.90
2018-10-06T04:04:34.414Z,99.90
2018-10-06T04:07:04.461Z,99.90
2018-10-06T04:09:34.072Z,99.90
2018-10-06T04:12:04.381Z,99.90
2018-10-06T04:14:36.043Z,99.90
2018-10-06T04:17:05.825Z,99.90
2018-10-06T04:19:36.023Z,99.90
2018-10-06T04:22:05.772Z,99.90
2018-10-06T04:24:35.999Z,99.90
2018-10-06T04:27:05.391Z,99.90
2018-10-06T04:29:35.194Z,99.90
2018-10-06T04:32:05.137Z,99.90
2018-10-06T04:34:34.787Z,99.90
2018-10-06T04:37:03.867Z,99.90
2018-10-06T04:39:35.046Z,99.90
2018-10-06T04:42:05.043Z,99.90
2018-10-06T04:44:34.931Z,99.90
2018-10-06T04:47:04.269Z,99.90
2018-10-06T04:49:35.021Z,99.90
2018-10-06T04:52:04.836Z,99.90
2018-10-06T04:54:34.541Z,99.90
2018-10-06T04:57:04.454Z,99.90
2018-10-06T04:59:34.144Z,99.90
2018-10-06T05:02:03.995Z,99.90
2018-10-06T05:04:33.403Z,99.90
2018-10-06T05:07:03.187Z,99.90
2018-10-06T05:09:32.636Z,99.90
2018-10-06T05:12:01.982Z,99.90
2018-10-06T05:14:30.754Z,99.90
2018-10-06T05:16:59.334Z,99.90
2018-10-06T05:19:27.967Z,99.90
2018-10-06T05:21:56.744Z,99.90
2018-10-06T05:24:25.750Z,99.90
2018-10-06T05:26:55.461Z,99.90
2018-10-06T05:29:24.363Z,99.90
2018-10-06T05:31:52.971Z,99.90
2018-10-06T05:34:21.649Z,99.90
2018-10-06T05:36:51.126Z,99.90
2018-10-06T05:39:19.721Z,99.90
2018-10-06T05:41:48.306Z,99.90
2018-10-06T05:44:16.916Z,99.90
2018-10-06T05:46:45.570Z,99.90
2018-10-06T05:49:14.166Z,99.90
2018-10-06T05:51:42.822Z,99.90
2018-10-06T05:54:11.526Z,99.90
2018-10-06T05:56:42.433Z,99.90
2018-10-06T05:59:12.664Z,99.90
2018-10-06T06:01:41.849Z,99.90
2018-10-06T06:04:10.757Z,99.90
2018-10-06T06:06:41.493Z,99.90
2018-10-06T06:09:26.290Z,99.90
2018-10-06T06:11:55.525Z,99.90
2018-10-06T06:14:24.578Z,99.90
2018-10-06T06:16:53.407Z,99.90
2018-10-06T06:19:22.108Z,99.90
2018-10-06T06:21:50.703Z,99.90
2018-10-06T06:24:19.282Z,99.90
2018-10-06T06:26:47.851Z,99.90
2018-10-06T06:29:16.489Z,99.90
2018-10-06T06:31:45.064Z,99.90
2018-10-06T06:34:13.759Z,99.90
2018-10-06T06:36:43.313Z,99.90
2018-10-06T06:39:11.991Z,99.90
2018-10-06T06:41:41.033Z,99.90
2018-10-06T06:44:10.245Z,99.90
2018-10-06T06:46:39.415Z,99.90
2018-10-06T06:49:08.933Z,99.90
2018-10-06T06:51:39.085Z,99.90
2018-10-06T06:54:08.394Z,99.90
2018-10-06T06:56:38.005Z,99.90
2018-10-06T06:59:07.581Z,99.90
2018-10-06T07:01:37.474Z,99.90
2018-10-06T07:04:07.363Z,99.90
2018-10-06T07:06:42.228Z,99.90
2018-10-06T07:09:11.351Z,99.90
2018-10-06T07:11:40.123Z,99.90
2018-10-06T07:14:09.279Z,99.90
2018-10-06T07:16:38.845Z,99.90
2018-10-06T07:19:09.085Z,99.90
2018-10-06T07:21:38.558Z,99.90
2018-10-06T07:24:08.497Z,99.90
2018-10-06T07:26:38.047Z,99.90
2018-10-06T07:29:07.522Z,99.90
2018-10-06T07:31:37.605Z,99.90
2018-10-06T07:34:07.057Z,99.90
2018-10-06T07:36:36.324Z,99.90
2018-10-06T07:39:06.801Z,99.90
2018-10-06T07:41:35.858Z,99.90
2018-10-06T07:44:05.223Z,99.90
2018-10-06T07:46:34.560Z,99.90
2018-10-06T07:49:03.680Z,99.90
2018-10-06T07:51:32.878Z,99.90
2018-10-06T07:54:02.928Z,99.90
2018-10-06T07:56:32.620Z,99.90
2018-10-06T07:59:01.586Z,99.90
2018-10-06T08:01:30.242Z,99.90
2018-10-06T08:03:58.910Z,99.90
2018-10-06T08:06:27.742Z,99.90
2018-10-06T08:08:56.426Z,99.90
2018-10-06T08:11:25.634Z,99.90
2018-10-06T08:13:54.657Z,99.90
2018-10-06T08:16:23.481Z,99.90
2018-10-06T08:18:52.141Z,99.90
2018-10-06T08:21:20.731Z,99.90
2018-10-06T08:23:54.415Z,99.90
2018-10-06T08:28:57.703Z,99.90
2018-10-06T08:31:26.777Z,99.90
2018-10-06T08:33:55.600Z,99.90
2018-10-06T08:36:24.825Z,99.90
2018-10-06T08:38:53.693Z,99.90
2018-10-06T08:41:22.486Z,99.90
2018-10-06T08:43:51.167Z,99.90
2018-10-06T08:46:19.757Z,99.90
2018-10-06T08:48:48.407Z,99.90
2018-10-06T08:51:17.024Z,99.90
2018-10-06T08:53:45.640Z,99.90
2018-10-06T08:56:14.404Z,99.90
2018-10-06T08:58:43.071Z,99.90
2018-10-06T09:01:12.311Z,99.90
2018-10-06T09:03:45.224Z,99.90
2018-10-06T09:06:14.849Z,99.90
2018-10-06T09:08:43.874Z,99.90
2018-10-06T09:11:12.891Z,99.90
2018-10-06T09:13:41.922Z,99.90
2018-10-06T09:16:10.805Z,99.90
2018-10-06T09:18:39.914Z,99.90
2018-10-06T09:21:08.969Z,99.90
2018-10-06T09:23:38.202Z,99.90
2018-10-06T09:26:08.294Z,99.90
2018-10-06T09:28:38.295Z,99.90
2018-10-06T09:31:08.132Z,99.90
2018-10-06T09:33:37.711Z,99.90
2018-10-06T09:36:07.230Z,99.90
2018-10-06T09:38:37.169Z,99.90
2018-10-06T09:41:07.597Z,99.90
2018-10-06T09:43:37.666Z,99.90
2018-10-06T09:46:07.519Z,99.90
2018-10-06T09:48:37.865Z,99.90
2018-10-06T09:51:08.294Z,99.90
2018-10-06T09:53:38.309Z,99.90
2018-10-06T09:56:08.331Z,99.90
2018-10-06T09:58:38.175Z,99.90
2018-10-06T10:01:12.814Z,99.90
2018-10-06T10:03:46.987Z,99.90
2018-10-06T10:06:15.614Z,99.90
2018-10-06T10:08:44.177Z,99.90
2018-10-06T10:11:13.216Z,99.90
2018-10-06T10:13:42.194Z,99.90
2018-10-06T10:16:10.977Z,99.90
2018-10-06T10:18:40.312Z,99.90
2018-10-06T10:21:09.606Z,99.90
2018-10-06T10:23:38.787Z,99.90
2018-10-06T10:26:09.351Z,99.90
2018-10-06T10:28:38.816Z,99.90
2018-10-06T10:31:08.146Z,99.90
2018-10-06T10:33:37.250Z,99.90
2018-10-06T10:36:07.161Z,99.90
2018-10-06T10:38:37.117Z,99.90
2018-10-06T10:41:06.861Z,99.90
2018-10-06T10:43:36.292Z,99.90
2018-10-06T10:46:05.949Z,99.90
2018-10-06T10:48:35.473Z,99.90
2018-10-06T10:51:05.239Z,99.90
2018-10-06T10:53:34.923Z,99.90
2018-10-06T10:56:04.691Z,99.90
2018-10-06T10:58:35.367Z,99.90
2018-10-06T11:01:05.296Z,99.90
2018-10-06T11:03:35.248Z,99.90
2018-10-06T11:06:04.849Z,99.90
2018-10-06T11:08:34.817Z,99.90
2018-10-06T11:11:04.859Z,99.90
2018-10-06T11:13:34.493Z,99.90
2018-10-06T11:16:05.060Z,99.90
2018-10-06T11:18:35.145Z,99.90
2018-10-06T11:21:04.355Z,99.90
2018-10-06T11:23:36.422Z,99.90
2018-10-06T11:26:06.634Z,99.90
2018-10-06T11:28:37.270Z,99.90
2018-10-06T11:31:06.408Z,99.90
2018-10-06T11:33:35.985Z,99.90
2018-10-06T11:36:07.499Z,99.90
2018-10-06T11:38:37.131Z,99.90
2018-10-06T11:41:06.579Z,99.90
2018-10-06T11:43:36.444Z,99.90
2018-10-06T11:46:06.740Z,99.90
2018-10-06T11:48:36.372Z,99.90
2018-10-06T11:51:06.783Z,99.90
2018-10-06T11:53:36.555Z,99.90
2018-10-06T11:56:06.534Z,99.90
2018-10-06T11:58:36.578Z,99.90
2018-10-06T12:01:06.483Z,99.90
2018-10-06T12:03:36.687Z,99.90
2018-10-06T12:06:08.421Z,99.90
2018-10-06T12:08:37.661Z,99.90
2018-10-06T12:11:07.310Z,99.90
2018-10-06T12:13:38.914Z,99.90
2018-10-06T12:16:09.692Z,99.60
2018-10-06T12:18:43.767Z,99.90
2018-10-06T12:21:12.389Z,99.90
2018-10-06T12:23:41.305Z,99.90
2018-10-06T12:26:12.721Z,99.00
2018-10-06T12:28:41.694Z,99.40
2018-10-06T12:31:10.978Z,98.80
2018-10-06T12:33:40.222Z,96.30
2018-10-06T12:36:09.866Z,96.40
2018-10-06T12:38:39.607Z,99.90
2018-10-06T12:41:09.003Z,99.80
2018-10-06T12:43:38.229Z,99.10
2018-10-06T12:46:07.870Z,96.90
2018-10-06T12:48:37.880Z,95.70
2018-10-06T12:51:07.814Z,97.30
2018-10-06T12:53:37.423Z,95.90
2018-10-06T12:56:06.699Z,97.20
2018-10-06T12:58:36.323Z,96.80
2018-10-06T13:01:06.058Z,96.40
2018-10-06T13:03:35.618Z,97.00
2018-10-06T13:06:05.802Z,98.20
2018-10-06T13:08:36.408Z,98.20
2018-10-06T13:11:08.357Z,97.50
2018-10-06T13:13:37.667Z,92.60
2018-10-06T13:16:07.245Z,94.50
2018-10-06T13:18:36.532Z,92.40
2018-10-06T13:21:06.099Z,93.40
2018-10-06T13:23:35.743Z,92.80
2018-10-06T13:26:06.585Z,92.40
2018-10-06T13:28:37.562Z,93.80
2018-10-06T13:31:07.277Z,93.00
2018-10-06T13:33:36.905Z,92.80
2018-10-06T13:36:07.338Z,90.60
2018-10-06T13:38:38.103Z,91.20
2018-10-06T13:41:07.474Z,91.10
2018-10-06T13:43:37.410Z,91.70
2018-10-06T13:46:07.423Z,91.00
2018-10-06T13:48:37.761Z,90.70
2018-10-06T13:51:08.649Z,91.00
2018-10-06T13:53:37.867Z,88.60
2018-10-06T13:56:08.031Z,88.90
2018-10-06T13:58:37.637Z,88.20
2018-10-06T14:01:07.355Z,91.80
2018-10-06T14:03:37.638Z,90.80
2018-10-06T14:06:07.280Z,90.00
2018-10-06T14:08:40.261Z,91.20
2018-10-06T14:11:09.721Z,90.20
2018-10-06T14:13:40.038Z,90.30
2018-10-06T14:16:09.470Z,90.00
2018-10-06T14:18:38.850Z,90.30
2018-10-06T14:21:08.706Z,92.30
2018-10-06T14:23:38.893Z,90.30
2018-10-06T14:26:09.778Z,90.20
2018-10-06T14:28:39.886Z,91.20
2018-10-06T14:31:09.729Z,91.10
2018-10-06T14:33:45.560Z,92.00
2018-10-06T14:36:14.199Z,91.00
2018-10-06T14:38:43.039Z,93.20
2018-10-06T14:41:12.421Z,90.60
2018-10-06T14:43:41.402Z,93.30
2018-10-06T14:46:10.403Z,91.50
2018-10-06T14:48:40.145Z,91.10
2018-10-06T14:51:10.269Z,91.50
2018-10-06T14:53:39.776Z,90.50
2018-10-06T14:56:08.971Z,91.10
2018-10-06T14:58:38.586Z,90.40
2018-10-06T15:01:07.965Z,90.70
2018-10-06T15:03:38.465Z,91.90
2018-10-06T15:06:08.309Z,90.40
2018-10-06T15:08:38.543Z,92.40
2018-10-06T15:11:08.435Z,92.50
2018-10-06T15:13:38.194Z,93.20
2018-10-06T15:16:07.706Z,92.70
2018-10-06T15:18:37.489Z,90.90
2018-10-06T15:21:07.575Z,93.30
2018-10-06T15:23:37.138Z,92.50
2018-10-06T15:26:06.746Z,93.30
2018-10-06T15:28:37.746Z,93.40
2018-10-06T15:31:07.394Z,93.40
2018-10-06T15:33:36.904Z,92.90
2018-10-06T15:36:07.034Z,93.10
2018-10-06T15:38:37.157Z,93.10
2018-10-06T15:41:07.010Z,93.20
2018-10-06T15:43:36.930Z,93.20
2018-10-06T15:46:07.706Z,94.10
2018-10-06T15:48:37.588Z,94.70
2018-10-06T15:51:07.421Z,95.20
2018-10-06T15:53:36.697Z,94.30
2018-10-06T15:56:06.328Z,95.30
2018-10-06T15:58:36.222Z,95.70
2018-10-06T16:01:05.510Z,95.70
2018-10-06T16:03:35.211Z,95.80
2018-10-06T16:06:05.059Z,95.30
2018-10-06T16:08:35.106Z,95.70
2018-10-06T16:11:04.046Z,98.00
2018-10-06T16:13:34.809Z,98.20
2018-10-06T16:16:04.829Z,96.70
2018-10-06T16:18:35.721Z,99.90
2018-10-06T16:21:06.205Z,99.30
2018-10-06T16:23:36.313Z,99.90
2018-10-06T16:26:06.418Z,99.80
2018-10-06T16:28:36.559Z,99.90
2018-10-06T16:31:07.411Z,99.90
2018-10-06T16:33:37.022Z,99.90
2018-10-06T16:36:06.756Z,99.90
2018-10-06T16:38:36.385Z,99.90
2018-10-06T16:41:06.331Z,99.90
2018-10-06T16:43:35.857Z,99.90
2018-10-06T16:46:06.488Z,99.90
2018-10-06T16:48:35.948Z,99.90
2018-10-06T16:51:05.828Z,99.90
2018-10-06T16:53:36.105Z,99.90
2018-10-06T16:56:06.384Z,99.90
2018-10-06T16:58:36.341Z,99.90
2018-10-06T17:01:07.325Z,99.90
2018-10-06T17:03:37.361Z,99.90
2018-10-06T17:06:07.405Z,99.90
2018-10-06T17:08:38.450Z,99.90
2018-10-06T17:11:08.515Z,99.90
2018-10-06T17:13:38.333Z,99.90
2018-10-06T17:16:08.378Z,99.90
2018-10-06T17:18:38.135Z,99.90
2018-10-06T17:21:07.662Z,99.90
2018-10-06T17:23:37.585Z,99.90
2018-10-06T17:26:07.617Z,99.90
2018-10-06T17:28:37.599Z,99.90
2018-10-06T17:31:07.226Z,99.90
2018-10-06T17:33:36.813Z,99.90
2018-10-06T17:36:06.952Z,99.90
2018-10-06T17:38:36.539Z,99.90
2018-10-06T17:41:06.295Z,99.90
2018-10-06T17:43:36.816Z,99.90
2018-10-06T17:46:06.308Z,99.90
2018-10-06T17:48:35.694Z,99.90
2018-10-06T17:51:08.107Z,99.90
2018-10-06T17:53:36.922Z,99.90
2018-10-06T17:56:07.872Z,99.90
2018-10-06T17:58:37.656Z,99.90
2018-10-06T18:01:08.472Z,99.90
2018-10-06T18:03:38.717Z,99.90
2018-10-06T18:06:09.411Z,99.90
2018-10-06T18:08:38.528Z,99.90
2018-10-06T18:11:08.175Z,99.90
2018-10-06T18:13:37.977Z,99.90
2018-10-06T18:16:07.417Z,99.90
2018-10-06T18:18:37.327Z,99.90
2018-10-06T18:21:07.100Z,99.90
2018-10-06T18:23:36.934Z,99.90
2018-10-06T18:26:06.491Z,99.90
2018-10-06T18:28:36.349Z,99.90
2018-10-06T18:31:06.505Z,99.90
2018-10-06T18:33:36.990Z,99.90
2018-10-06T18:36:16.535Z,99.90
2018-10-06T18:38:45.148Z,99.90
2018-10-06T18:41:14.258Z,99.90
2018-10-06T18:43:49.704Z,99.90
2018-10-06T18:46:18.258Z,99.90
2018-10-06T18:48:46.890Z,99.90
2018-10-06T18:51:16.092Z,99.90
2018-10-06T18:53:44.707Z,99.90
2018-10-06T18:56:13.837Z,99.90
2018-10-06T18:58:42.515Z,99.90
2018-10-06T19:15:31.369Z,99.90
2018-10-06T19:18:00.072Z,99.90
2018-10-06T19:20:29.650Z,99.90
2018-10-06T19:22:58.358Z,99.90
2018-10-06T19:25:27.592Z,99.90
2018-10-06T19:27:56.755Z,99.90
2018-10-06T19:30:25.421Z,99.90
2018-10-06T19:56:56.696Z,99.90
2018-10-06T19:59:25.364Z,99.90
2018-10-06T20:01:54.046Z,99.90
2018-10-06T20:04:22.716Z,99.90
2018-10-06T20:06:51.295Z,99.90
2018-10-06T20:09:19.954Z,99.90
2018-10-06T20:11:48.624Z,99.90
2018-10-06T20:14:17.328Z,99.90
2018-10-06T20:16:46.053Z,99.90
2018-10-06T20:19:15.038Z,99.90
2018-10-06T20:21:44.259Z,99.90
2018-10-06T20:24:13.306Z,99.90
2018-10-06T20:26:42.334Z,99.90
2018-10-06T20:29:11.402Z,99.90
2018-10-06T20:31:46.348Z,99.90
2018-10-06T20:34:15.433Z,99.90
2018-10-06T20:36:44.088Z,99.90
2018-10-06T20:39:12.686Z,99.90
2018-10-06T20:41:41.523Z,99.90
2018-10-06T20:44:12.505Z,99.90
2018-10-06T20:46:41.406Z,99.90
2018-10-06T20:49:10.508Z,99.90
2018-10-06T20:51:39.991Z,99.90
2018-10-06T20:54:09.034Z,99.90
2018-10-06T20:56:38.492Z,99.90
2018-10-06T20:59:08.118Z,99.90
2018-10-06T21:01:38.623Z,99.90
2018-10-06T21:04:07.923Z,99.90
2018-10-06T21:06:37.695Z,99.90
2018-10-06T21:09:10.418Z,99.90
2018-10-06T21:11:39.955Z,99.90
2018-10-06T21:14:11.354Z,99.90
2018-10-06T21:16:40.349Z,99.90
2018-10-06T21:19:09.945Z,99.90
2018-10-06T21:21:39.807Z,99.90
2018-10-06T21:24:09.091Z,99.90
2018-10-06T21:26:38.960Z,99.90
2018-10-06T21:29:08.362Z,99.90
2018-10-06T21:31:38.595Z,99.90
2018-10-06T21:34:07.925Z,99.90
2018-10-06T21:36:37.718Z,99.90
2018-10-06T21:39:10.191Z,99.90
2018-10-06T21:41:39.514Z,99.90
2018-10-06T21:44:09.108Z,99.90
2018-10-06T21:46:38.486Z,99.90
2018-10-06T21:49:08.268Z,99.90
2018-10-06T21:51:37.727Z,99.90
2018-10-06T21:54:07.968Z,99.90
2018-10-06T21:56:37.856Z,99.90
2018-10-06T21:59:08.302Z,99.90
2018-10-06T22:01:38.242Z,99.90
2018-10-06T22:04:07.735Z,99.90
2018-10-06T22:06:38.102Z,99.90
2018-10-06T22:09:08.829Z,99.90
2018-10-06T22:11:37.978Z,99.90
2018-10-06T22:14:08.331Z,99.90
2018-10-06T22:16:38.711Z,99.90
2018-10-06T22:19:08.791Z,99.90
2018-10-06T22:21:38.355Z,99.90
2018-10-06T22:24:13.662Z,99.90
2018-10-06T22:26:42.963Z,99.90
2018-10-06T22:29:11.923Z,99.90
2018-10-06T22:31:41.420Z,99.90
2018-10-06T22:34:10.571Z,99.90
2018-10-06T22:36:39.912Z,99.90
2018-10-06T22:39:09.920Z,99.90
2018-10-06T22:41:39.837Z,99.90
2018-10-06T22:44:09.781Z,99.90
2018-10-06T22:46:39.115Z,99.90
2018-10-06T22:49:08.837Z,99.90
2018-10-06T22:51:39.151Z,99.90
2018-10-06T22:54:08.608Z,99.90
2018-10-06T22:56:37.852Z,99.90
2018-10-06T22:59:08.288Z,99.90
2018-10-06T23:01:38.322Z,99.90
2018-10-06T23:04:07.927Z,99.90
2018-10-06T23:06:37.532Z,99.90
2018-10-06T23:09:10.073Z,99.90
2018-10-06T23:11:39.306Z,99.90
2018-10-06T23:14:09.294Z,99.90
2018-10-06T23:16:38.556Z,99.90
2018-10-06T23:19:07.688Z,99.90
2018-10-06T23:21:37.107Z,99.90
2018-10-06T23:24:06.545Z,99.90
2018-10-06T23:26:35.878Z,99.90
2018-10-06T23:29:05.612Z,99.90
2018-10-06T23:31:35.735Z,99.90
2018-10-06T23:34:05.606Z,99.90
2018-10-06T23:36:35.461Z,99.90
2018-10-06T23:39:07.249Z,99.90
2018-10-06T23:41:37.732Z,99.90
2018-10-06T23:44:06.704Z,99.90
2018-10-06T23:46:36.455Z,99.90
2018-10-06T23:49:07.471Z,99.90
2018-10-06T23:51:37.203Z,99.90
2018-10-06T23:54:06.710Z,99.90
2018-10-06T23:56:37.198Z,99.90
2018-10-06T23:59:06.694Z,99.90
